Time;durP1;ratioP1;P1;durP2;ratioP2;P2;SDS_P1;SDS_P2;PMS_P1;PMS_P2;Temp;Humidity;BMP_temperature;BMP_pressure;BME280_temperature;BME280_humidity;BME280_pressure;Samples;Min_cycle;Max_cycle;Signal;HPM_P1;HPM_P2
2023/03/14 00:00:30;;;;;;;5.85;2.95;;;7.30;99.90;;;;;;5037026;28;20366;-83
2023/03/14 00:02:55;;;;;;;7.97;2.80;;;7.20;99.90;;;;;;5037329;28;20025;-83
2023/03/14 00:05:21;;;;;;;12.05;3.90;;;7.30;99.90;;;;;;5070477;28;20037;-83
2023/03/14 00:07:47;;;;;;;5.80;3.20;;;7.30;99.90;;;;;;5020828;28;20428;-83
2023/03/14 00:10:14;;;;;;;7.47;3.45;;;7.20;99.90;;;;;;5070021;28;20025;-83
2023/03/14 00:12:41;;;;;;;8.57;3.95;;;7.20;99.90;;;;;;5020446;28;20087;-83
2023/03/14 00:15:08;;;;;;;10.07;4.10;;;7.20;99.90;;;;;;5070217;28;20038;-83
2023/03/14 00:17:35;;;;;;;10.52;3.58;;;7.20;99.90;;;;;;5069457;28;20723;-83
2023/03/14 00:20:32;;;;;;;8.10;3.35;;;7.20;99.90;;;;;;5020054;28;20452;-83
2023/03/14 00:22:57;;;;;;;9.65;3.63;;;7.20;99.90;;;;;;5036980;28;20056;-83
2023/03/14 00:25:23;;;;;;;5.57;3.30;;;7.20;99.90;;;;;;5069931;28;20053;-83
2023/03/14 00:27:51;;;;;;;8.75;4.32;;;7.10;99.90;;;;;;5036670;28;20029;-83
2023/03/14 00:30:17;;;;;;;7.00;3.17;;;7.10;99.90;;;;;;5036284;28;20025;-83
2023/03/14 00:32:43;;;;;;;9.20;3.95;;;7.20;99.90;;;;;;5069948;28;20037;-83
2023/03/14 00:35:09;;;;;;;6.68;3.85;;;7.20;99.90;;;;;;5036858;28;20029;-83
2023/03/14 00:37:34;;;;;;;8.23;3.78;;;7.20;99.90;;;;;;5019948;28;20075;-83
2023/03/14 00:40:00;;;;;;;10.73;3.58;;;7.10;99.90;;;;;;5069388;28;20029;-83
2023/03/14 00:42:26;;;;;;;8.65;3.83;;;7.10;99.90;;;;;;5019606;28;20061;-83
2023/03/14 00:44:51;;;;;;;7.18;3.60;;;7.10;99.90;;;;;;5069789;28;20128;-83
2023/03/14 00:47:17;;;;;;;10.38;3.58;;;7.10;99.90;;;;;;5036399;28;20379;-83
2023/03/14 00:49:43;;;;;;;6.32;3.03;;;7.20;99.90;;;;;;5036357;28;20090;-83
2023/03/14 00:52:09;;;;;;;6.15;3.25;;;7.20;99.90;;;;;;5069633;28;20056;-83
2023/03/14 00:54:35;;;;;;;7.28;3.45;;;7.20;99.90;;;;;;5019775;28;20120;-83
2023/03/14 00:57:00;;;;;;;12.38;3.50;;;7.30;99.90;;;;;;5035835;28;20527;-82
2023/03/14 00:59:32;;;;;;;4.85;2.90;;;7.20;99.90;;;;;;5035718;28;20033;-83
2023/03/14 01:01:58;;;;;;;4.60;2.70;;;7.30;99.90;;;;;;5019828;28;20025;-83
2023/03/14 01:04:24;;;;;;;5.45;2.75;;;7.30;99.90;;;;;;5036176;28;20033;-83
2023/03/14 01:06:49;;;;;;;7.03;3.03;;;7.30;99.90;;;;;;5018664;28;20120;-83
2023/03/14 01:09:17;;;;;;;5.97;2.75;;;7.30;99.90;;;;;;5018761;28;20025;-83
2023/03/14 01:11:46;;;;;;;9.45;3.05;;;7.30;99.90;;;;;;5018939;28;20060;-83
2023/03/14 01:14:12;;;;;;;5.15;2.85;;;7.30;99.90;;;;;;5068583;28;20025;-83
2023/03/14 01:16:38;;;;;;;10.80;4.32;;;7.30;99.90;;;;;;5035480;28;20037;-83
2023/03/14 01:19:03;;;;;;;7.68;2.97;;;7.40;99.90;;;;;;5019272;28;20044;-83
2023/03/14 01:21:32;;;;;;;9.45;3.72;;;7.40;99.90;;;;;;5036093;28;20104;-82
2023/03/14 01:24:00;;;;;;;12.85;3.10;;;7.40;99.90;;;;;;5019268;28;20060;-83
2023/03/14 01:26:28;;;;;;;5.57;2.90;;;7.40;99.90;;;;;;5018842;28;20040;-83
2023/03/14 01:28:56;;;;;;;9.07;3.03;;;7.40;99.90;;;;;;5019281;28;20079;-83
2023/03/14 01:31:23;;;;;;;5.53;2.60;;;7.40;99.90;;;;;;5019061;28;20053;-83
2023/03/14 01:33:48;;;;;;;5.60;2.35;;;7.40;99.90;;;;;;5069127;28;20079;-83
2023/03/14 01:36:15;;;;;;;5.03;2.33;;;7.40;99.90;;;;;;5068914;28;20036;-83
2023/03/14 01:38:42;;;;;;;11.35;3.05;;;7.50;99.90;;;;;;5019220;28;20024;-83
2023/03/14 01:41:16;;;;;;;11.95;2.40;;;7.50;99.90;;;;;;5068435;28;20032;-83
2023/03/14 01:43:43;;;;;;;6.50;2.58;;;7.50;99.90;;;;;;5068548;28;20043;-82
2023/03/14 01:46:19;;;;;;;10.40;3.03;;;7.50;99.90;;;;;;5068473;28;20078;-83
2023/03/14 01:49:00;;;;;;;4.97;2.45;;;7.50;99.90;;;;;;5019079;28;20071;-83
2023/03/14 01:51:31;;;;;;;11.95;3.53;;;7.60;99.90;;;;;;5034677;28;20029;-83
2023/03/14 01:54:16;;;;;;;5.47;1.73;;;7.60;99.90;;;;;;5068003;28;20396;-83
2023/03/14 01:56:46;;;;;;;9.30;2.85;;;7.50;99.90;;;;;;5018554;28;20064;-83
2023/03/14 01:59:12;;;;;;;7.72;2.50;;;7.50;99.90;;;;;;5018579;28;20499;-83
2023/03/14 02:01:42;;;;;;;10.60;2.78;;;7.50;99.90;;;;;;5018952;28;20029;-83
2023/03/14 02:04:09;;;;;;;9.90;2.22;;;7.50;99.90;;;;;;5017877;28;20401;-84
2023/03/14 02:07:12;;;;;;;8.40;2.67;;;7.50;99.90;;;;;;5067925;28;20029;-83
2023/03/14 02:09:43;;;;;;;9.43;2.22;;;7.50;99.90;;;;;;5019166;28;20030;-83
2023/03/14 02:12:21;;;;;;;6.55;2.30;;;7.50;99.90;;;;;;5019868;28;20021;-83
2023/03/14 02:14:51;;;;;;;7.35;2.25;;;7.50;99.90;;;;;;5019537;28;20021;-83
2023/03/14 02:17:43;;;;;;;6.28;2.20;;;7.50;99.90;;;;;;5019984;28;20123;-83
2023/03/14 02:20:54;;;;;;;5.97;2.10;;;7.50;99.90;;;;;;5032748;28;20029;-82
2023/03/14 02:23:51;;;;;;;7.38;2.20;;;7.50;99.90;;;;;;5018698;28;20032;-83
2023/03/14 02:26:27;;;;;;;5.60;2.17;;;7.50;99.90;;;;;;5033897;28;20516;-83
2023/03/14 02:28:53;;;;;;;8.50;2.42;;;7.50;99.90;;;;;;5017843;28;20033;-83
2023/03/14 02:31:22;;;;;;;7.75;2.63;;;7.50;99.90;;;;;;5050861;28;20029;-83
2023/03/14 02:33:49;;;;;;;4.43;2.00;;;7.50;99.90;;;;;;5068055;28;20112;-83
2023/03/14 02:36:17;;;;;;;7.38;2.35;;;7.50;99.90;;;;;;5018171;28;20052;-83
2023/03/14 02:39:23;;;;;;;5.88;2.17;;;7.50;99.90;;;;;;5034630;28;20032;-83
2023/03/14 02:41:49;;;;;;;7.20;2.33;;;7.60;99.90;;;;;;5067418;28;20435;-83
2023/03/14 02:44:16;;;;;;;6.50;2.13;;;7.60;99.90;;;;;;5018043;28;20029;-82
2023/03/14 02:46:42;;;;;;;9.13;2.30;;;7.60;99.90;;;;;;5017737;28;20044;-82
2023/03/14 02:49:11;;;;;;;8.48;1.88;;;7.60;99.90;;;;;;5018026;28;20029;-82
2023/03/14 02:51:39;;;;;;;5.20;2.10;;;7.50;99.90;;;;;;5034766;28;20017;-83
2023/03/14 02:54:06;;;;;;;9.20;2.40;;;7.50;99.90;;;;;;5018317;28;20025;-83
2023/03/14 02:56:31;;;;;;;11.73;2.35;;;7.50;99.90;;;;;;5017935;28;20036;-83
2023/03/14 02:58:58;;;;;;;6.20;2.50;;;7.50;99.90;;;;;;5017829;28;20029;-83
2023/03/14 03:01:34;;;;;;;6.30;2.40;;;7.50;99.90;;;;;;5019042;28;20396;-82
2023/03/14 03:04:00;;;;;;;5.25;2.92;;;7.60;99.90;;;;;;5017964;28;20044;-83
2023/03/14 03:06:26;;;;;;;12.02;3.17;;;7.50;99.90;;;;;;5034181;28;20040;-83
2023/03/14 03:08:52;;;;;;;5.72;2.60;;;7.60;99.90;;;;;;5017822;28;20025;-83
2023/03/14 03:11:18;;;;;;;9.13;2.88;;;7.50;99.90;;;;;;5034118;28;20488;-83
2023/03/14 03:13:44;;;;;;;10.07;4.18;;;7.60;99.90;;;;;;5034014;28;20044;-83
2023/03/14 03:16:09;;;;;;;8.73;3.38;;;7.60;99.90;;;;;;5017631;28;20124;-83
2023/03/14 03:18:35;;;;;;;4.22;2.55;;;7.60;99.90;;;;;;5021373;28;20033;-83
2023/03/14 03:21:05;;;;;;;7.45;4.18;;;7.60;99.90;;;;;;5038164;28;20066;-83
2023/03/14 03:23:31;;;;;;;11.55;4.20;;;7.60;99.90;;;;;;5071543;28;20040;-83
2023/03/14 03:25:57;;;;;;;6.05;2.95;;;7.60;99.90;;;;;;5070724;28;20036;-83
2023/03/14 03:28:22;;;;;;;3.70;2.50;;;7.60;99.90;;;;;;5021515;28;20052;-83
2023/03/14 03:30:50;;;;;;;7.68;3.25;;;7.60;99.90;;;;;;5037793;28;20028;-83
2023/03/14 03:33:15;;;;;;;13.27;2.88;;;7.60;99.90;;;;;;5021021;28;20460;-83
2023/03/14 03:35:45;;;;;;;6.57;2.38;;;7.60;99.90;;;;;;5021542;28;20124;-82
2023/03/14 03:38:12;;;;;;;7.95;2.30;;;7.50;99.90;;;;;;5021362;28;20400;-83
2023/03/14 03:40:39;;;;;;;3.80;2.00;;;7.50;99.90;;;;;;5021077;28;20058;-82
2023/03/14 03:43:06;;;;;;;8.43;2.25;;;7.50;99.90;;;;;;5021337;28;20455;-82
2023/03/14 03:45:45;;;;;;;6.07;2.30;;;7.40;99.90;;;;;;5070933;28;20055;-83
2023/03/14 03:48:10;;;;;;;9.15;1.95;;;7.50;99.90;;;;;;5070804;28;20025;-83
2023/03/14 03:50:36;;;;;;;7.82;1.83;;;7.50;99.90;;;;;;5021019;28;20082;-83
2023/03/14 03:53:02;;;;;;;5.68;1.70;;;7.40;99.90;;;;;;5037565;28;20032;-83
2023/03/14 03:55:28;;;;;;;8.90;1.90;;;7.40;99.90;;;;;;5021067;28;20021;-83
2023/03/14 03:57:54;;;;;;;9.27;2.28;;;7.40;99.90;;;;;;5020997;28;20059;-83
2023/03/14 04:00:20;;;;;;;8.73;1.85;;;7.40;99.90;;;;;;5020483;28;20040;-83
2023/03/14 04:02:47;;;;;;;7.65;1.95;;;7.40;99.90;;;;;;5037211;28;20110;-83
2023/03/14 04:05:16;;;;;;;8.48;2.15;;;7.30;99.90;;;;;;5021084;28;20108;-83
2023/03/14 04:07:49;;;;;;;5.25;2.20;;;7.30;99.90;;;;;;5022124;28;20025;-83
2023/03/14 04:10:21;;;;;;;8.73;2.15;;;7.30;99.90;;;;;;5070382;28;20431;-83
2023/03/14 04:13:26;;;;;;;3.33;1.73;;;7.20;99.90;;;;;;5070791;28;20033;-82
2023/03/14 04:15:54;;;;;;;3.90;1.70;;;7.20;99.90;;;;;;5020323;28;20496;-82
2023/03/14 04:18:24;;;;;;;7.43;1.98;;;7.20;99.90;;;;;;5020769;28;20595;-81
2023/03/14 04:20:55;;;;;;;7.88;2.20;;;7.10;99.90;;;;;;5019985;28;20033;-82
2023/03/14 04:23:24;;;;;;;9.77;2.25;;;7.20;99.90;;;;;;5020781;28;20060;-82
2023/03/14 04:25:51;;;;;;;8.00;1.73;;;7.20;99.90;;;;;;5036616;28;20491;-82
2023/03/14 04:28:17;;;;;;;10.52;2.17;;;7.20;99.90;;;;;;5052831;28;20032;-82
2023/03/14 04:30:43;;;;;;;16.35;2.83;;;7.20;99.90;;;;;;5020002;28;20033;-82
2023/03/14 04:33:16;;;;;;;5.65;1.90;;;7.20;99.90;;;;;;5070061;28;20033;-82
2023/03/14 04:35:47;;;;;;;3.45;1.48;;;7.20;99.90;;;;;;5020623;28;20110;-83
2023/03/14 04:38:16;;;;;;;6.93;2.53;;;7.20;99.90;;;;;;5021081;28;20092;-82
2023/03/14 04:40:44;;;;;;;10.93;1.90;;;7.20;99.90;;;;;;5020628;28;20036;-81
2023/03/14 04:43:12;;;;;;;4.70;1.55;;;7.20;99.90;;;;;;5020680;28;20770;-82
2023/03/14 04:45:45;;;;;;;7.50;2.13;;;7.20;99.90;;;;;;5036677;28;20056;-82
2023/03/14 04:48:12;;;;;;;6.70;1.85;;;7.20;99.90;;;;;;5036494;28;20694;-82
2023/03/14 04:50:39;;;;;;;3.50;1.70;;;7.20;99.90;;;;;;5019801;28;20112;-82
2023/03/14 04:53:06;;;;;;;8.65;1.83;;;7.20;99.90;;;;;;5019969;28;20578;-82
2023/03/14 04:55:32;;;;;;;5.63;1.83;;;7.20;99.90;;;;;;5019916;28;20068;-82
2023/03/14 04:57:59;;;;;;;8.27;1.90;;;7.30;99.90;;;;;;5019981;28;20052;-82
2023/03/14 05:00:25;;;;;;;7.50;2.03;;;7.20;99.90;;;;;;5019607;28;20064;-82
2023/03/14 05:03:04;;;;;;;5.03;1.70;;;7.20;99.90;;;;;;5068532;28;20079;-82
2023/03/14 05:05:47;;;;;;;6.80;1.98;;;7.20;99.90;;;;;;5021527;28;20120;-82
2023/03/14 05:08:35;;;;;;;5.72;2.05;;;7.20;99.90;;;;;;5022135;28;20457;-82
2023/03/14 05:11:32;;;;;;;8.75;1.75;;;7.20;99.90;;;;;;4991702;28;20418;-82
2023/03/14 05:14:18;;;;;;;7.15;1.63;;;7.20;99.90;;;;;;5005733;28;20090;-82
2023/03/14 05:17:14;;;;;;;6.22;1.48;;;7.20;99.90;;;;;;5023087;28;20071;-82
2023/03/14 05:19:58;;;;;;;10.50;1.30;;;7.20;99.90;;;;;;5038085;28;20060;-82
2023/03/14 05:22:23;;;;;;;6.20;1.95;;;7.10;99.90;;;;;;5035807;28;20040;-82
2023/03/14 05:25:18;;;;;;;12.82;3.28;;;7.10;99.90;;;;;;5068935;28;20039;-82
2023/03/14 05:28:00;;;;;;;17.17;6.00;;;7.10;99.90;;;;;;5035940;28;20040;-82
2023/03/14 05:30:53;;;;;;;21.48;6.45;;;7.20;99.90;;;;;;5027975;28;20028;-82
2023/03/14 05:33:41;;;;;;;10.23;3.97;;;7.20;99.90;;;;;;5069016;28;20527;-82
2023/03/14 05:36:13;;;;;;;6.80;1.60;;;7.20;99.90;;;;;;5068770;28;20044;-82
2023/03/14 05:38:41;;;;;;;11.38;1.67;;;7.30;99.90;;;;;;5035701;28;20033;-82
2023/03/14 05:41:24;;;;;;;5.60;1.88;;;7.30;99.90;;;;;;5020990;28;20101;-86
2023/03/14 05:44:16;;;;;;;;;;;7.20;99.90;;;;;;4992659;28;20537;-85
2023/03/14 05:47:20;;;;;;;5.90;1.52;;;7.20;99.90;;;;;;4972572;28;19950;-86
2023/03/14 05:50:04;;;;;;;2.17;1.27;;;7.10;99.90;;;;;;4958720;28;20054;-87
2023/03/14 05:52:42;;;;;;;9.57;1.40;;;7.10;99.90;;;;;;5001471;28;20510;-84
2023/03/14 05:55:19;;;;;;;8.40;1.88;;;7.10;99.90;;;;;;5069045;28;20119;-85
2023/03/14 05:57:47;;;;;;;9.75;2.03;;;7.20;99.90;;;;;;5036397;28;20043;-84
2023/03/14 06:00:35;;;;;;;4.72;1.20;;;7.20;99.90;;;;;;5020333;28;20033;-84
2023/03/14 06:03:26;;;;;;;7.88;1.30;;;7.20;99.90;;;;;;5021335;28;20034;-84
2023/03/14 06:05:55;;;;;;;20.67;5.60;;;7.20;99.90;;;;;;5019085;28;20652;-84
2023/03/14 06:08:35;;;;;;;23.02;6.82;;;7.20;99.90;;;;;;5036370;28;20427;-84
2023/03/14 06:11:03;;;;;;;13.10;3.33;;;7.10;99.90;;;;;;5068450;28;20075;-84
2023/03/14 06:13:30;;;;;;;5.68;2.50;;;7.10;99.90;;;;;;5035252;28;20055;-85
2023/03/14 06:15:56;;;;;;;4.38;1.40;;;7.10;99.90;;;;;;5018906;28;20033;-85
2023/03/14 06:18:21;;;;;;;7.30;1.80;;;7.20;99.90;;;;;;5018980;28;20124;-84
2023/03/14 06:20:48;;;;;;;10.88;1.83;;;7.20;99.90;;;;;;5034851;28;20067;-85
2023/03/14 06:23:21;;;;;;;3.35;1.33;;;7.30;99.90;;;;;;5019712;28;20113;-85
2023/03/14 06:25:47;;;;;;;4.50;1.30;;;7.40;99.90;;;;;;5018522;28;20037;-85
2023/03/14 06:28:13;;;;;;;5.00;1.27;;;7.40;99.90;;;;;;5019051;28;20029;-85
2023/03/14 06:30:38;;;;;;;5.75;1.52;;;7.30;99.90;;;;;;5018793;28;20030;-85
2023/03/14 06:33:06;;;;;;;4.55;1.20;;;7.40;99.90;;;;;;5019403;28;20544;-85
2023/03/14 06:35:32;;;;;;;4.80;1.08;;;7.40;99.90;;;;;;5034112;28;20040;-85
2023/03/14 06:37:57;;;;;;;6.20;1.00;;;7.40;99.90;;;;;;5051772;28;20476;-85
2023/03/14 06:40:23;;;;;;;5.30;1.00;;;7.40;99.90;;;;;;5018553;28;20025;-85
2023/03/14 06:42:59;;;;;;;3.67;2.05;;;7.50;99.90;;;;;;5020074;28;20510;-85
2023/03/14 06:45:27;;;;;;;6.68;1.48;;;7.50;99.90;;;;;;5034395;28;20036;-85
2023/03/14 06:47:54;;;;;;;6.30;2.53;;;7.50;99.90;;;;;;5019157;28;20477;-85
2023/03/14 06:50:24;;;;;;;8.45;1.30;;;7.50;99.90;;;;;;5019692;28;20124;-85
2023/03/14 06:52:50;;;;;;;3.72;1.17;;;7.60;99.90;;;;;;5022436;28;20056;-85
2023/03/14 06:55:20;;;;;;;2.60;0.88;;;7.60;99.90;;;;;;5038599;28;20666;-85
2023/03/14 06:57:46;;;;;;;3.00;1.30;;;7.60;99.90;;;;;;5023008;28;20051;-85
2023/03/14 07:00:13;;;;;;;6.20;1.33;;;7.60;99.90;;;;;;5038974;28;20025;-85
2023/03/14 07:02:42;;;;;;;5.45;1.00;;;7.70;99.90;;;;;;5071679;28;20376;-85
2023/03/14 07:05:14;;;;;;;11.23;1.45;;;7.80;99.90;;;;;;5023157;28;20496;-85
2023/03/14 07:07:39;;;;;;;3.67;0.93;;;7.90;99.90;;;;;;5021900;28;20037;-85
2023/03/14 07:10:08;;;;;;;7.72;1.38;;;7.80;99.90;;;;;;5070950;28;20029;-85
2023/03/14 07:12:34;;;;;;;10.55;1.73;;;7.90;99.90;;;;;;5071749;28;20086;-85
2023/03/14 07:14:59;;;;;;;1.95;1.00;;;7.90;99.90;;;;;;5038914;28;20063;-84
2023/03/14 07:17:25;;;;;;;1.63;0.80;;;8.00;99.90;;;;;;5071743;28;20111;-85
2023/03/14 07:19:51;;;;;;;4.25;0.95;;;8.00;99.90;;;;;;5022288;28;20040;-85
2023/03/14 07:22:17;;;;;;;6.13;1.30;;;8.00;99.90;;;;;;5072129;28;20025;-85
2023/03/14 07:24:42;;;;;;;4.72;0.93;;;8.00;99.90;;;;;;5071361;28;20029;-85
2023/03/14 07:27:11;;;;;;;5.10;0.93;;;8.00;99.90;;;;;;5021678;28;20036;-85
2023/03/14 07:29:38;;;;;;;3.67;0.90;;;7.90;99.90;;;;;;5055351;28;20044;-85
2023/03/14 07:32:16;;;;;;;4.65;1.17;;;7.80;99.90;;;;;;5021595;28;20024;-85
2023/03/14 07:34:43;;;;;;;7.13;1.25;;;7.80;99.90;;;;;;5071008;28;20032;-85
2023/03/14 07:37:09;;;;;;;3.85;1.20;;;7.80;99.90;;;;;;5021775;28;20037;-85
2023/03/14 07:39:35;;;;;;;5.15;1.42;;;7.70;99.90;;;;;;5021702;28;20055;-85
2023/03/14 07:42:07;;;;;;;7.50;1.30;;;7.70;99.90;;;;;;5022965;28;20028;-85
2023/03/14 07:45:09;;;;;;;5.00;0.93;;;7.70;99.90;;;;;;4983129;28;20077;-84
2023/03/14 07:47:35;;;;;;;3.13;0.85;;;7.50;99.90;;;;;;5026327;28;20048;-84
2023/03/14 07:50:01;;;;;;;8.10;1.27;;;7.40;99.90;;;;;;5020813;28;20032;-85
2023/03/14 07:52:27;;;;;;;7.65;1.35;;;7.30;99.90;;;;;;5021222;28;20033;-85
2023/03/14 07:54:53;;;;;;;2.50;1.05;;;7.30;99.90;;;;;;5021428;28;20032;-85
2023/03/14 07:57:19;;;;;;;7.50;1.50;;;7.20;99.90;;;;;;5038268;28;20061;-84
2023/03/14 07:59:44;;;;;;;5.60;1.38;;;7.20;99.90;;;;;;5021842;28;20036;-85
2023/03/14 08:02:11;;;;;;;5.93;1.13;;;7.10;99.90;;;;;;5020969;28;20037;-85
2023/03/14 08:04:38;;;;;;;9.55;1.30;;;7.00;99.90;;;;;;5037927;28;20759;-85
2023/03/14 08:07:04;;;;;;;10.27;1.80;;;7.00;99.90;;;;;;5037520;28;20036;-85
2023/03/14 08:09:29;;;;;;;6.35;1.77;;;6.90;99.90;;;;;;5020618;28;20037;-85
2023/03/14 08:11:55;;;;;;;5.57;1.60;;;6.90;99.90;;;;;;5037994;28;20032;-85
2023/03/14 08:14:23;;;;;;;5.65;1.40;;;6.90;99.90;;;;;;5021339;28;20025;-85
2023/03/14 08:16:52;;;;;;;5.40;1.40;;;6.80;99.90;;;;;;5020807;28;20029;-85
2023/03/14 08:19:18;;;;;;;3.97;1.15;;;6.80;99.90;;;;;;5021176;28;20044;-85
2023/03/14 08:21:44;;;;;;;6.40;1.23;;;6.80;99.90;;;;;;5037358;28;20032;-85
2023/03/14 08:24:09;;;;;;;3.13;1.77;;;6.80;99.90;;;;;;5020284;28;20025;-84
2023/03/14 08:26:35;;;;;;;5.07;1.27;;;6.80;99.90;;;;;;5070447;28;20484;-84
2023/03/14 08:29:02;;;;;;;7.93;1.50;;;6.80;99.90;;;;;;5070839;28;20029;-85
2023/03/14 08:31:28;;;;;;;7.03;1.63;;;6.90;99.90;;;;;;5020704;28;20037;-85
2023/03/14 08:33:54;;;;;;;9.35;1.70;;;6.90;99.90;;;;;;5020291;28;20044;-85
2023/03/14 08:36:20;;;;;;;8.77;3.38;;;6.90;99.90;;;;;;5053910;28;20124;-85
2023/03/14 08:38:46;;;;;;;9.45;2.65;;;6.90;99.90;;;;;;5020706;28;20052;-85
2023/03/14 08:41:12;;;;;;;8.80;2.20;;;6.90;99.90;;;;;;5020729;28;20040;-84
2023/03/14 08:43:38;;;;;;;9.98;2.78;;;7.00;99.90;;;;;;5019752;28;20033;-84
2023/03/14 08:46:04;;;;;;;7.45;1.60;;;7.10;99.90;;;;;;5037390;28;20427;-85
2023/03/14 08:48:30;;;;;;;5.65;1.25;;;7.10;99.90;;;;;;5020900;28;20135;-85
2023/03/14 08:51:03;;;;;;;8.27;1.58;;;7.10;99.90;;;;;;5019500;28;20033;-85
2023/03/14 08:53:29;;;;;;;4.80;1.20;;;7.10;99.90;;;;;;5020499;28;20760;-85
2023/03/14 08:55:55;;;;;;;5.22;1.30;;;7.20;99.90;;;;;;5020827;28;20036;-85
2023/03/14 08:58:22;;;;;;;2.53;1.17;;;7.20;99.90;;;;;;5037060;28;20041;-85
2023/03/14 09:00:48;;;;;;;4.65;1.27;;;7.20;99.90;;;;;;5020145;28;20491;-85
2023/03/14 09:03:14;;;;;;;4.32;1.25;;;7.20;99.90;;;;;;5020231;28;20044;-85
2023/03/14 09:05:40;;;;;;;3.63;1.10;;;7.30;99.90;;;;;;5069958;28;20040;-85
2023/03/14 09:08:06;;;;;;;3.63;1.30;;;7.40;99.90;;;;;;5053183;28;20037;-84
2023/03/14 09:10:31;;;;;;;4.30;1.38;;;7.50;99.90;;;;;;5036542;28;20083;-85
2023/03/14 09:12:58;;;;;;;1.95;0.85;;;7.50;99.90;;;;;;5036601;28;20024;-85
2023/03/14 09:15:24;;;;;;;4.38;1.08;;;7.50;99.90;;;;;;5036537;28;20111;-84
2023/03/14 09:17:50;;;;;;;5.88;1.17;;;7.60;99.90;;;;;;5019967;28;20061;-84
2023/03/14 09:20:16;;;;;;;2.03;1.02;;;7.70;99.90;;;;;;5020160;28;20551;-85
2023/03/14 09:26:29;;;;;;;4.20;1.20;;;7.80;99.90;;;;;;5054366;28;20135;-85
2023/03/14 09:28:54;;;;;;;4.95;1.05;;;7.80;99.90;;;;;;5036500;28;20064;-85
2023/03/14 09:31:20;;;;;;;5.00;1.23;;;7.80;99.90;;;;;;5019571;28;20032;-85
2023/03/14 09:33:46;;;;;;;4.60;1.17;;;7.80;99.90;;;;;;5036591;28;20476;-85
2023/03/14 09:36:11;;;;;;;0.98;0.60;;;7.90;99.90;;;;;;5020396;28;20033;-85
2023/03/14 09:38:37;;;;;;;1.30;1.20;;;7.90;99.90;;;;;;5019977;28;20033;-83
2023/03/14 09:41:14;;;;;;;2.65;1.30;;;7.90;99.90;;;;;;5036224;28;20480;-84
2023/03/14 09:43:42;;;;;;;6.10;1.20;;;7.90;99.90;;;;;;5019966;28;20044;-84
2023/03/14 09:46:11;;;;;;;4.97;1.73;;;7.80;99.90;;;;;;5019664;28;20033;-85
2023/03/14 09:48:36;;;;;;;1.67;1.30;;;7.80;99.90;;;;;;5020139;28;20025;-84
2023/03/14 09:51:07;;;;;;;3.75;1.35;;;7.80;99.90;;;;;;5069124;28;20399;-84
2023/03/14 09:53:42;;;;;;;3.47;1.17;;;7.80;99.90;;;;;;5019933;28;20154;-84
2023/03/14 09:56:14;;;;;;;5.40;1.35;;;7.80;99.90;;;;;;5019051;28;20041;-84
2023/03/14 09:58:42;;;;;;;3.58;1.67;;;7.70;99.90;;;;;;5036208;28;20037;-84
2023/03/14 10:01:11;;;;;;;3.20;1.48;;;7.60;99.90;;;;;;5053897;28;20040;-85
2023/03/14 10:03:36;;;;;;;4.68;2.70;;;7.60;99.90;;;;;;5035681;28;20040;-85
2023/03/14 10:06:10;;;;;;;1.73;1.35;;;7.70;99.90;;;;;;5018692;28;20036;-85
2023/03/14 10:08:42;;;;;;;2.15;1.80;;;7.70;99.90;;;;;;5018619;28;20484;-84
2023/03/14 10:11:16;;;;;;;7.07;1.70;;;7.90;99.90;;;;;;5035323;28;20029;-85
2023/03/14 10:14:03;;;;;;;7.55;1.58;;;7.80;99.90;;;;;;5035712;28;20472;-85
2023/03/14 10:16:35;;;;;;;2.53;1.38;;;7.70;99.90;;;;;;5019135;28;20037;-84
2023/03/14 10:19:07;;;;;;;2.65;1.42;;;7.60;99.90;;;;;;5035360;28;20094;-84
2023/03/14 10:21:42;;;;;;;4.13;1.77;;;7.60;99.90;;;;;;5035284;28;20032;-85
2023/03/14 10:24:09;;;;;;;3.58;2.10;;;7.60;99.90;;;;;;5018781;28;20039;-85
2023/03/14 10:26:36;;;;;;;4.40;1.50;;;7.70;99.90;;;;;;5034829;28;20128;-85
2023/03/14 10:29:12;;;;;;;5.88;1.70;;;7.70;99.90;;;;;;5034987;28;20052;-84
2023/03/14 10:32:01;;;;;;;3.83;1.83;;;7.70;99.90;;;;;;5019091;28;20558;-85
2023/03/14 10:34:30;;;;;;;1.83;1.40;;;7.70;99.90;;;;;;5019590;28;20025;-85
2023/03/14 10:37:17;;;;;;;1.50;1.30;;;7.60;99.90;;;;;;5019152;28;20083;-85
2023/03/14 10:39:52;;;;;;;4.55;1.95;;;7.50;99.90;;;;;;5019285;28;20037;-85
2023/03/14 10:42:33;;;;;;;2.80;1.50;;;7.60;99.90;;;;;;5035446;28;20033;-84
2023/03/14 10:45:03;;;;;;;1.92;1.25;;;7.60;99.90;;;;;;5018887;28;20033;-85
2023/03/14 10:47:29;;;;;;;2.50;1.70;;;7.60;99.90;;;;;;5068439;28;20127;-85
2023/03/14 10:49:56;;;;;;;2.15;1.60;;;7.60;99.90;;;;;;5019006;28;20467;-85
2023/03/14 10:52:29;;;;;;;3.95;1.20;;;7.60;99.90;;;;;;5019214;28;20021;-83
2023/03/14 10:54:58;;;;;;;1.45;1.20;;;7.60;99.90;;;;;;5018521;28;20037;-85
2023/03/14 10:57:25;;;;;;;1.70;1.38;;;7.50;99.90;;;;;;5018950;28;20044;-85
2023/03/14 10:59:52;;;;;;;3.35;1.45;;;7.50;99.90;;;;;;5051911;28;20484;-85
2023/03/14 11:02:36;;;;;;;6.32;1.23;;;7.40;99.90;;;;;;5035905;28;20029;-84
2023/03/14 11:05:21;;;;;;;4.80;1.58;;;7.40;99.90;;;;;;5018687;28;20033;-84
2023/03/14 11:07:46;;;;;;;1.90;1.23;;;7.40;99.90;;;;;;5051746;28;20040;-84
2023/03/14 11:10:39;;;;;;;1.65;0.90;;;7.40;99.90;;;;;;5018795;28;20033;-84
2023/03/14 11:13:08;;;;;;;1.70;1.30;;;7.50;99.90;;;;;;5018897;28;20024;-84
2023/03/14 11:15:55;;;;;;;1.73;1.60;;;7.40;99.90;;;;;;5053111;28;20031;-84
2023/03/14 11:18:42;;;;;;;2.38;1.70;;;7.40;99.90;;;;;;5051816;28;20032;-83
2023/03/14 11:21:37;;;;;;;2.83;1.67;;;7.40;99.90;;;;;;5018251;28;20068;-84
2023/03/14 11:24:25;;;;;;;2.97;2.20;;;7.30;99.90;;;;;;5050836;28;20040;-85
2023/03/14 11:27:12;;;;;;;4.35;2.50;;;7.40;99.90;;;;;;5017706;28;20037;-85
2023/03/14 11:29:55;;;;;;;2.42;2.05;;;7.40;99.90;;;;;;5034444;28;20040;-85
2023/03/14 11:32:45;;;;;;;4.63;3.00;;;7.40;99.90;;;;;;5068189;28;20393;-84
2023/03/14 11:35:50;;;;;;;4.80;2.28;;;7.40;99.90;;;;;;5018541;28;20029;-84
2023/03/14 11:38:40;;;;;;;5.47;3.30;;;7.40;99.90;;;;;;5018324;28;20087;-84
2023/03/14 11:41:14;;;;;;;3.28;2.28;;;7.40;99.90;;;;;;5021804;28;20445;-84
2023/03/14 11:43:43;;;;;;;4.70;2.67;;;7.30;99.90;;;;;;5021938;28;20131;-84
2023/03/14 11:46:22;;;;;;;3.53;3.10;;;7.30;99.90;;;;;;5021863;28;20043;-84
2023/03/14 11:49:11;;;;;;;6.75;4.30;;;7.30;99.90;;;;;;5022118;28;20044;-84
2023/03/14 11:51:41;;;;;;;8.60;5.18;;;7.20;99.90;;;;;;5022126;28;20025;-84
2023/03/14 11:54:46;;;;;;;6.30;3.67;;;7.30;99.90;;;;;;5022020;28;20056;-85
2023/03/14 11:57:15;;;;;;;4.78;4.03;;;7.30;99.90;;;;;;4981521;28;20481;-84
2023/03/14 12:00:12;;;;;;;3.50;3.20;;;7.20;99.90;;;;;;5032277;28;20454;-84
2023/03/14 12:03:06;;;;;;;4.72;3.45;;;7.20;99.90;;;;;;5038401;28;20488;-84
2023/03/14 12:06:01;;;;;;;6.40;4.93;;;7.20;99.90;;;;;;5021985;28;20032;-84
2023/03/14 12:08:30;;;;;;;8.77;5.35;;;7.20;99.90;;;;;;5038490;28;20025;-85
2023/03/14 12:11:00;;;;;;;7.10;6.00;;;7.20;99.90;;;;;;5021541;28;20029;-85
2023/03/14 12:13:33;;;;;;;10.38;7.10;;;7.20;99.90;;;;;;5021845;28;20448;-85
2023/03/14 12:16:03;;;;;;;9.18;7.28;;;7.20;99.90;;;;;;5021194;28;20032;-84
2023/03/14 12:18:39;;;;;;;9.07;6.75;;;7.20;99.90;;;;;;5037972;28;20033;-84
2023/03/14 12:21:07;;;;;;;9.52;6.97;;;7.20;99.90;;;;;;5021191;28;20381;-85
2023/03/14 12:23:55;;;;;;;5.63;4.55;;;7.20;99.90;;;;;;5021735;28;20036;-85
2023/03/14 12:26:23;;;;;;;5.32;4.13;;;7.20;99.90;;;;;;5038100;28;20037;-86
2023/03/14 12:29:16;;;;;;;6.70;4.90;;;7.10;99.90;;;;;;5054451;28;20025;-84
2023/03/14 12:32:06;;;;;;;6.43;4.93;;;7.00;99.90;;;;;;5018741;28;20155;-84
2023/03/14 12:34:42;;;;;;;5.43;4.40;;;7.00;99.90;;;;;;5055705;28;20033;-85
2023/03/14 12:37:17;;;;;;;6.97;4.45;;;6.70;99.90;;;;;;5020893;28;20033;-85
2023/03/14 12:40:01;;;;;;;6.22;4.47;;;6.70;99.90;;;;;;5020944;28;20037;-85
2023/03/14 12:42:31;;;;;;;4.43;3.42;;;6.60;99.90;;;;;;5054077;28;20083;-84
2023/03/14 12:45:25;;;;;;;6.10;3.78;;;6.60;99.90;;;;;;5037170;28;20036;-84
2023/03/14 12:48:14;;;;;;;5.97;3.67;;;6.50;99.90;;;;;;5020512;28;20090;-84
2023/03/14 12:50:55;;;;;;;7.50;4.65;;;6.50;99.90;;;;;;5070152;28;20079;-84
2023/03/14 12:53:57;;;;;;;10.52;5.40;;;6.40;99.90;;;;;;5070474;28;20067;-84
2023/03/14 12:56:27;;;;;;;7.68;5.53;;;6.30;99.90;;;;;;5053509;28;20037;-85
2023/03/14 13:02:21;;;;;;;4.00;3.47;;;6.20;99.90;;;;;;5069845;28;20040;-84
2023/03/14 13:05:17;;;;;;;4.38;3.75;;;6.10;99.90;;;;;;5020249;28;20025;-84
2023/03/14 13:07:44;;;;;;;4.22;3.80;;;6.00;99.90;;;;;;5020433;28;20123;-85
2023/03/14 13:10:09;;;;;;;3.60;2.95;;;6.00;99.90;;;;;;5020164;28;20032;-84
2023/03/14 13:12:55;;;;;;;4.45;2.70;;;5.90;99.90;;;;;;5036895;28;20029;-85
2023/03/14 13:15:29;;;;;;;3.92;2.72;;;5.90;99.90;;;;;;5036353;28;20040;-84
2023/03/14 13:18:01;;;;;;;4.00;2.45;;;5.80;99.90;;;;;;5019425;28;20044;-85
2023/03/14 13:20:35;;;;;;;3.70;2.28;;;5.80;99.90;;;;;;5019857;28;20037;-85
2023/03/14 13:23:01;;;;;;;3.92;2.50;;;5.70;99.90;;;;;;5019629;28;20032;-85
2023/03/14 13:25:33;;;;;;;5.07;3.65;;;5.60;99.90;;;;;;5069354;28;20491;-85
2023/03/14 13:28:01;;;;;;;5.90;4.00;;;5.70;99.90;;;;;;5036152;28;20032;-85